createdAt,value
2022-12-25T00:06:33.078Z,17.80
2022-12-25T00:16:36.132Z,17.63
2022-12-25T00:26:40.599Z,16.87
2022-12-25T00:36:43.683Z,17.80
2022-12-25T00:46:48.137Z,17.83
2022-12-25T00:56:51.196Z,19.93
2022-12-25T01:06:55.569Z,17.27
2022-12-25T01:16:58.618Z,15.40
2022-12-25T01:27:03.042Z,15.97
2022-12-25T01:37:07.085Z,14.67
2022-12-25T01:47:11.525Z,16.20
2022-12-25T01:57:19.534Z,15.87
2022-12-25T02:07:26.629Z,15.93
2022-12-25T02:17:34.187Z,14.40
2022-12-25T02:28:14.979Z,13.40
2022-12-25T02:38:21.368Z,13.27
2022-12-25T02:48:46.783Z,13.03
2022-12-25T02:59:08.345Z,12.13
2022-12-25T03:09:35.671Z,11.17
2022-12-25T03:19:56.447Z,11.57
2022-12-25T03:30:18.043Z,11.20
2022-12-25T03:40:50.200Z,11.33
2022-12-25T03:51:15.479Z,10.53
2022-12-25T04:01:36.121Z,10.00
2022-12-25T04:12:02.509Z,9.97
2022-12-25T04:22:23.237Z,11.00
2022-12-25T04:32:44.887Z,9.43
2022-12-25T04:42:47.988Z,8.63
2022-12-25T04:52:52.455Z,8.90
2022-12-25T05:02:55.626Z,8.20
2022-12-25T05:13:00.121Z,8.20
2022-12-25T05:23:03.168Z,7.77
2022-12-25T05:33:07.906Z,7.10
2022-12-25T05:43:10.933Z,6.50
2022-12-25T05:53:16.803Z,6.67
2022-12-25T06:03:19.904Z,5.73
2022-12-25T06:13:24.368Z,5.57
2022-12-25T06:23:27.501Z,5.60
2022-12-25T06:33:32.000Z,4.77
2022-12-25T06:43:35.496Z,4.60
2022-12-25T06:53:40.920Z,5.17
2022-12-25T07:03:45.187Z,4.83
2022-12-25T07:13:49.724Z,4.77
2022-12-25T07:23:52.816Z,5.40
2022-12-25T07:33:57.255Z,5.63
2022-12-25T07:44:00.318Z,6.07
2022-12-25T07:54:05.000Z,6.10
2022-12-25T08:04:09.212Z,6.80
2022-12-25T08:14:13.702Z,7.37
2022-12-25T08:24:16.930Z,6.60
2022-12-25T08:34:21.435Z,5.83
2022-12-25T08:44:24.493Z,5.03
2022-12-25T08:54:29.067Z,6.27
2022-12-25T09:04:32.099Z,6.47
2022-12-25T09:14:36.519Z,6.50
2022-12-25T09:24:39.892Z,5.63
2022-12-25T09:34:44.325Z,6.03
2022-12-25T09:44:52.663Z,5.73
2022-12-25T09:55:00.960Z,5.03
2022-12-25T10:05:26.781Z,4.97
2022-12-25T10:15:39.268Z,6.13
2022-12-25T10:25:47.049Z,5.23
2022-12-25T10:35:51.522Z,5.53
2022-12-25T10:45:54.526Z,5.80
2022-12-25T10:56:01.456Z,5.43
2022-12-25T11:06:05.530Z,5.90
2022-12-25T11:16:14.346Z,5.50
2022-12-25T11:26:18.847Z,5.37
2022-12-25T11:36:30.338Z,4.37
2022-12-25T11:46:41.227Z,4.50
2022-12-25T11:56:45.733Z,4.83
2022-12-25T12:06:53.275Z,5.20
2022-12-25T12:16:57.707Z,5.40
2022-12-25T12:27:03.569Z,4.93
2022-12-25T12:37:12.328Z,5.80
2022-12-25T12:47:31.209Z,6.07
2022-12-25T12:57:39.818Z,5.60
2022-12-25T13:07:56.001Z,5.13
2022-12-25T13:18:04.426Z,5.60
2022-12-25T13:28:07.427Z,5.40
2022-12-25T13:38:16.718Z,5.13
2022-12-25T13:48:20.829Z,5.50
2022-12-25T13:58:28.177Z,5.10
2022-12-25T14:08:33.034Z,4.80
2022-12-25T14:18:37.710Z,5.13
2022-12-25T14:28:40.772Z,7.37
2022-12-25T14:38:45.979Z,5.40
2022-12-25T14:49:00.422Z,5.90
2022-12-25T14:59:07.207Z,5.83
2022-12-25T15:09:15.983Z,6.17
2022-12-25T15:19:26.500Z,7.20
2022-12-25T15:30:09.186Z,5.10
2022-12-25T15:39:57.396Z,6.60
2022-12-25T15:50:00.803Z,6.73
2022-12-25T16:00:07.955Z,5.40
2022-12-25T16:10:16.772Z,6.23
2022-12-25T16:20:21.203Z,6.53
2022-12-25T16:30:24.203Z,5.47
2022-12-25T16:40:28.887Z,5.47
2022-12-25T16:50:31.884Z,5.13
2022-12-25T17:00:36.379Z,6.07
2022-12-25T17:10:40.001Z,5.70
2022-12-25T17:20:52.495Z,5.50
2022-12-25T17:30:55.783Z,6.40
2022-12-25T17:41:01.533Z,5.87
2022-12-25T17:51:05.840Z,6.90
2022-12-25T18:01:12.417Z,7.40
2022-12-25T18:11:17.660Z,6.47
2022-12-25T18:21:23.084Z,6.60
2022-12-25T18:31:30.089Z,7.23
2022-12-25T18:41:54.747Z,8.53
2022-12-25T18:52:49.870Z,8.10
2022-12-25T19:02:22.288Z,7.80
2022-12-25T19:12:25.583Z,7.77
2022-12-25T19:22:30.301Z,8.63
2022-12-25T19:32:33.391Z,7.10
2022-12-25T19:42:37.777Z,7.70
2022-12-25T19:52:40.901Z,7.37
2022-12-25T20:02:45.444Z,8.27
2022-12-25T20:12:49.720Z,8.97
2022-12-25T20:22:54.134Z,9.67
2022-12-25T20:32:57.946Z,8.27
2022-12-25T20:43:02.392Z,8.73
2022-12-25T20:53:05.395Z,8.13
2022-12-25T21:03:10.017Z,8.63
2022-12-25T21:13:13.235Z,8.93
2022-12-25T21:23:18.865Z,7.80
2022-12-25T21:33:44.891Z,8.67
2022-12-25T21:43:49.269Z,9.10
2022-12-25T21:53:52.422Z,8.53
2022-12-25T22:03:57.138Z,10.27
2022-12-25T22:14:50.219Z,8.30
2022-12-25T22:24:55.761Z,6.53
2022-12-25T22:34:58.793Z,6.83
2022-12-25T22:45:03.324Z,10.10
2022-12-25T22:55:08.979Z,6.87
2022-12-25T23:05:13.589Z,7.23
2022-12-25T23:15:16.772Z,7.10
2022-12-25T23:25:38.455Z,7.50
2022-12-25T23:35:41.516Z,7.10
2022-12-25T23:45:45.903Z,6.93
2022-12-25T23:55:55.395Z,5.90
